Data for 09/23/2005

Time Sea-Level Adjusted Pressure Absolute Pressure Temperature Relative Humidity Dew Point   
(mb) (inHg) (mb) (inHg) (C) (F) (%) (C) (F)
00:05 1015 29.97 844 24.92 12.9 55.1 64 6.4 43.5
00:10 1015 29.97 844 24.92 13 55.3 64 6.3 43.3
00:15 1015 29.97 844 24.92 13 55.4 63 6.2 43.2
00:20 1015 29.97 844 24.92 13 55.4 63 6.2 43.1
00:25 1015 29.97 844 24.92 13 55.4 62 5.9 42.6
00:30 1015 29.97 844 24.92 13 55.4 64 6.5 43.6
00:35 1015 29.97 844 24.92 12.6 54.7 64 6.2 43.1
00:40 1015 29.97 844 24.92 12.5 54.5 63 5.8 42.5
00:45 1015 29.97 844 24.92 12.6 54.7 64 6 42.8
00:50 1015 29.97 844 24.92 12.6 54.7 61 5.2 41.4
00:55 1015 29.97 844 24.92 12.7 54.8 60 5.1 41.1
01:00 1015 29.97 844 24.92 12.8 55 58 4.7 40.5
01:05 1015 29.97 844 24.92 12.8 55.1 55 4.2 39.5
01:10 1015 29.97 844 24.92 13.1 55.5 55 4.2 39.6
01:15 1015 29.97 844 24.92 13 55.3 55 4.2 39.6
01:20 1015 29.97 844 24.92 13 55.3 55 4.3 39.8
01:25 1015 29.97 844 24.92 13 55.3 56 4.5 40.1
01:30 1015 29.97 844 24.92 13 55.3 56 4.5 40.1
01:35 1015 29.97 844 24.92 12.9 55.2 57 4.7 40.4
01:40 1015 29.97 844 24.92 12.8 55 56 4.4 39.9
01:45 1015 29.97 844 24.92 12.8 55 59 5.1 41.2
01:50 1015 29.97 844 24.92 12.8 55 59 4.9 40.9
01:55 1015 29.97 844 24.92 12.9 55.2 58 4.9 40.8
02:00 1015 29.97 844 24.92 12.8 55 60 5.3 41.5
02:05 1015 29.97 845 24.95 12.5 54.5 62 5.4 41.7
02:10 1015 29.97 844 24.92 12.3 54.1 63 5.5 41.9
02:15 1015 29.97 845 24.95 11.9 53.4 66 5.7 42.2
02:20 1015 29.97 844 24.92 11.6 52.9 66 5.5 41.9
02:25 1015 29.97 844 24.92 11.4 52.6 66 5.4 41.7
02:30 1015 29.97 845 24.95 11.4 52.5 66 5.2 41.4
02:35 1015 29.97 844 24.92 11.3 52.3 65 5.1 41.2
02:40 1015 29.97 844 24.92 11.3 52.3 64 4.7 40.4
02:45 1015 29.97 844 24.92 11.5 52.8 59 3.9 39.1
02:50 1015 29.97 844 24.92 11.6 52.8 59 4 39.1
02:55 1015 29.97 844 24.92 11.5 52.6 60 3.9 39.1
03:00 1015 29.97 844 24.92 11.4 52.5 60 4 39.2
03:05 1015 29.97 844 24.92 11.2 52.2 60 3.7 38.7
03:10 1015 29.97 844 24.92 11.2 52.2 59 3.5 38.3
03:15 1015 29.97 844 24.92 11.3 52.3 58 3.5 38.2
03:20 1015 29.97 844 24.92 11.4 52.5 58 3.5 38.3
03:25 1015 29.97 844 24.92 11.5 52.7 57 3.3 38
03:30 1015 29.97 844 24.92 11.7 53 56 3.3 38
03:35 1015 29.97 844 24.92 11.8 53.2 56 3.2 37.8
03:40 1015 29.97 844 24.92 11.8 53.2 56 3.3 37.9
03:45 1015 29.97 844 24.92 11.8 53.2 55 3.2 37.8
03:50 1015 29.97 844 24.92 11.7 53.1 55 3.1 37.6
03:55 1015 29.97 844 24.92 11.8 53.2 55 3.1 37.6
04:00 1015 29.97 844 24.92 11.8 53.2 55 3.1 37.7
04:05 1015 29.97 844 24.92 11.7 53 55 3.1 37.6
04:10 1015 29.97 844 24.92 11.6 52.9 56 3.2 37.8
04:15 1015 29.97 844 24.92 11.5 52.6 56 3.2 37.7
04:20 1015 29.97 844 24.92 11.4 52.5 57 3.3 37.9
04:25 1015 29.97 844 24.92 11.3 52.4 57 3.2 37.8
04:30 1015 29.97 844 24.92 11.3 52.3 57 3.2 37.8
04:35 1015 29.97 844 24.92 11.3 52.3 57 3.2 37.7
04:40 1015 29.97 844 24.92 11.3 52.3 57 3.1 37.6
04:45 1015 29.97 844 24.92 11.2 52.2 58 3.3 37.9
04:50 1015 29.97 844 24.92 11 51.8 59 3.3 38
04:55 1015 29.97 844 24.92 10.8 51.4 59 3.2 37.8
05:00 1015 29.97 844 24.92 10.8 51.5 60 3.3 38
05:05 1015 29.97 844 24.92 10.7 51.3 60 3.4 38.1
05:10 1015 29.97 844 24.92 10.6 51.2 61 3.5 38.3
05:15 1015 29.97 844 24.92 10.5 50.9 61 3.4 38.1
05:20 1015 29.97 844 24.92 10.6 51.1 61 3.4 38.2
05:25 1015 29.97 844 24.92 10.7 51.2 61 3.4 38.1
05:30 1015 29.97 844 24.92 10.7 51.3 60 3.4 38
05:35 1015 29.97 844 24.92 10.7 51.3 59 3.1 37.6
05:40 1015 29.97 844 24.92 10.8 51.5 59 3.2 37.8
05:45 1015 29.97 844 24.92 10.8 51.4 58 3 37.4
05:50 1015 29.97 844 24.92 10.9 51.6 57 2.7 36.8
05:55 1015 29.97 844 24.92 11 51.7 57 2.7 36.9
06:00 1015 29.97 844 24.92 11 51.7 56 2.5 36.6
06:05 1015 29.97 844 24.92 10.9 51.6 55 2.4 36.2
06:10 1015 29.97 844 24.92 10.8 51.5 56 2.5 36.5
06:15 1015 29.97 844 24.92 10.7 51.2 60 3.1 37.7
06:20 1015 29.97 844 24.92 9.9 49.8 62 3.1 37.5
06:25 1015 29.97 844 24.92 9.3 48.8 63 2.7 36.9
06:30 1015 29.97 844 24.92 9 48.2 64 2.5 36.6
06:35 1015 29.97 844 24.92 8.9 48 63 2.3 36.2
06:40 1015 29.97 844 24.92 9.1 48.4 62 2.3 36.1
06:45 1015 29.97 844 24.92 9.4 49 61 2.4 36.3
06:50 1015 29.97 844 24.92 9.7 49.4 61 2.5 36.5
06:55 1015 29.97 844 24.92 9.8 49.6 60 2.3 36.2
07:00 1015 29.97 844 24.92 10.2 50.3 58 2.2 36
07:05 1015 29.97 844 24.92 10.3 50.6 57 2.2 35.9
07:10 1015 29.97 844 24.92 10.4 50.7 57 2.4 36.2
07:15 1015 29.97 844 24.92 10.4 50.7 57 2.3 36.2
07:20 1015 29.97 845 24.95 10.3 50.6 57 2.3 36.2
07:25 1015 29.97 845 24.95 10.3 50.5 58 2.4 36.3
07:30 1015 29.97 845 24.95 10.3 50.6 59 2.7 36.9
07:35 1015 29.97 845 24.95 9.8 49.6 61 2.7 36.9
07:40 1015 29.97 845 24.95 9.4 48.8 64 2.9 37.2
07:45 1015 29.97 845 24.95 8.8 47.8 68 3.2 37.8
07:50 1015 29.97 844 24.92 8.5 47.2 70 3.2 37.8
07:55 1015 29.97 844 24.92 8.1 46.5 71 3.1 37.6
08:00 1015 29.97 844 24.92 7.7 45.8 71 2.7 36.9
08:05 1015 29.97 845 24.95 7.6 45.7 68 2.1 35.7
08:10 1015 29.97 845 24.95 7.7 45.9 67 2 35.7
08:15 1015 29.97 844 24.92 8.1 46.5 68 2.6 36.7
08:20 1015 29.97 844 24.92 8.1 46.6 68 2.5 36.5
08:25 1015 29.97 844 24.92 8 46.3 73 3.5 38.3
08:30 1015 29.97 844 24.92 8.2 46.7 74 3.9 39
08:35 1015 29.97 844 24.92 8.2 46.8 75 4.1 39.4
08:40 1015 29.97 844 24.92 8.2 46.8 75 4.1 39.4
08:45 1015 29.97 845 24.95 8.2 46.8 76 4.3 39.7
08:50 1015 29.97 844 24.92 8.3 46.9 75 4.2 39.5
08:55 1015 29.97 844 24.92 8.4 47.1 75 4.2 39.6
09:00 1015 29.97 844 24.92 8.4 47.2 75 4.2 39.6
09:05 1015 29.97 844 24.92 8.4 47.2 75 4.3 39.7
09:10 1015 29.97 844 24.92 8.4 47.2 75 4.2 39.6
09:15 1015 29.97 844 24.92 8.4 47.2 75 4.2 39.6
09:20 1015 29.97 845 24.95 8.4 47 75 4.2 39.5
09:25 1016 30 845 24.95 8.3 47 76 4.3 39.8
09:30 1016 30 845 24.95 8.3 46.9 77 4.5 40.2
09:35 1016 30 845 24.95 8.2 46.7 80 4.9 40.9
09:40 1016 30 845 24.95 7.9 46.3 82 5.1 41.2
09:45 1016 30 846 24.98 7.8 46 81 4.7 40.5
09:50 1016 30 845 24.95 7.4 45.3 82 4.6 40.3
09:55 1016 30 845 24.95 7 44.6 85 4.7 40.4
10:00 1016 30 845 24.95 6.7 44 88 4.8 40.6
10:05 1015 29.97 845 24.95 6.5 43.7 89 4.8 40.6
10:10 1015 29.97 844 24.92 6.2 43.2 91 4.9 40.8
10:15 1015 29.97 844 24.92 6.4 43.5 90 4.8 40.6
10:20 1015 29.97 845 24.95 6.6 43.9 88 4.8 40.7
10:25 1015 29.97 845 24.95 7 44.6 91 5.6 42
10:30 1015 29.97 844 24.92 7.2 45 91 5.8 42.4
10:35 1015 29.97 844 24.92 7.5 45.5 89 5.8 42.4
10:40 1015 29.97 844 24.92 7.9 46.2 86 5.7 42.3
10:45 1015 29.97 844 24.92 8.3 47 83 5.6 42.1
10:50 1015 29.97 844 24.92 8.5 47.3 80 5.3 41.5
10:55 1016 30 845 24.95 8.4 47.2 81 5.4 41.8
11:00 1016 30 845 24.95 8.4 47.1 81 5.4 41.7
11:05 1016 30 845 24.95 8.3 47 81 5.2 41.4
11:10 1016 30 846 24.98 8.4 47 80 5.1 41.2
11:15 1017 30.03 846 24.98 8.3 46.9 84 5.7 42.2
11:20 1016 30 845 24.95 8 46.4 85 5.7 42.2
11:25 1016 30 845 24.95 8 46.5 85 5.6 42.1
11:30 1016 30 845 24.95 8.3 46.9 81 5.3 41.5
11:35 1016 30 845 24.95 7.9 46.1 88 6 42.8
11:40 1016 30 845 24.95 7.5 45.6 87 5.5 42
11:45 1016 30 845 24.95 7.5 45.5 84 5 41.1
11:50 1016 30 845 24.95 7.5 45.5 87 5.5 41.9
11:55 1016 30 845 24.95 7.6 45.6 87 5.6 42
12:00 1016 30 845 24.95 7.3 45.2 89 5.6 42.1
12:05 1016 30 845 24.95 7.2 45 90 5.7 42.3
12:10 1016 30 845 24.95 7 44.6 92 5.8 42.4
12:15 1016 30 845 24.95 6.9 44.5 93 5.9 42.6
12:20 1016 30 845 24.95 7 44.5 90 5.4 41.7
12:25 1016 30 845 24.95 7.2 45 90 5.7 42.3
12:30 1016 30 845 24.95 7.3 45.2 88 5.5 42
12:35 1015 29.97 845 24.95 7.1 44.8 89 5.4 41.7
12:40 1015 29.97 845 24.95 7.1 44.8 87 5.2 41.3
12:45 1015 29.97 845 24.95 7.2 45 91 5.8 42.4
12:50 1015 29.97 845 24.95 7.5 45.4 85 5.2 41.3
12:55 1016 30 845 24.95 7.7 45.8 86 5.5 41.9
13:00 1015 29.97 845 24.95 7.7 45.8 82 4.8 40.6
13:05 1015 29.97 844 24.92 7.3 45.1 85 5 41
13:10 1015 29.97 844 24.92 7.4 45.2 87 5.4 41.7
13:15 1015 29.97 844 24.92 7.4 45.4 86 5.3 41.5
13:20 1015 29.97 845 24.95 7.5 45.5 88 5.7 42.2
13:25 1015 29.97 844 24.92 8.2 46.7 88 6.3 43.3
13:30 1015 29.97 844 24.92 8.8 47.9 85 6.5 43.6
13:35 1015 29.97 844 24.92 9.3 48.8 84 6.8 44.3
13:40 1015 29.97 844 24.92 9.1 48.3 83 6.4 43.5
13:45 1015 29.97 844 24.92 8.8 47.8 83 6 42.9
13:50 1015 29.97 844 24.92 8.6 47.5 82 5.7 42.3
13:55 1015 29.97 844 24.92 8.4 47 85 6 42.8
14:00 1015 29.97 844 24.92 8.4 47.2 84 5.8 42.5
14:05 1015 29.97 844 24.92 8.4 47.2 83 5.7 42.3
14:10 1015 29.97 844 24.92 8.5 47.2 83 5.8 42.4
14:15 1015 29.97 844 24.92 8.5 47.2 82 5.6 42.1
14:20 1015 29.97 844 24.92 8.4 47.1 83 5.7 42.3
14:25 1015 29.97 844 24.92 8.3 46.9 83 5.6 42.1
14:30 1015 29.97 844 24.92 8.1 46.5 83 5.4 41.7
14:35 1015 29.97 844 24.92 8 46.4 82 5.1 41.2
14:40 1015 29.97 844 24.92 7.9 46.2 82 5 40.9
14:45 1015 29.97 844 24.92 7.9 46.2 82 5.1 41.2
14:50 1015 29.97 844 24.92 8 46.3 81 4.8 40.7
14:55 1015 29.97 844 24.92 8 46.3 82 5.1 41.1
15:00 1015 29.97 844 24.92 8 46.4 83 5.2 41.4
15:05 1015 29.97 844 24.92 8.2 46.7 82 5.3 41.5
15:10 1015 29.97 844 24.92 8 46.4 82 5.1 41.3
15:15 1015 29.97 844 24.92 7.9 46.3 83 5.2 41.4
15:20 1015 29.97 844 24.92 7.8 46.1 84 5.3 41.5
15:25 1015 29.97 844 24.92 7.8 46 85 5.4 41.7
15:30 1015 29.97 844 24.92 7.8 46 84 5.2 41.4
15:35 1015 29.97 844 24.92 7.8 46 86 5.5 41.9
15:40 1015 29.97 844 24.92 8 46.3 85 5.5 42
15:45 1015 29.97 844 24.92 8.2 46.7 84 5.6 42.1
15:50 1015 29.97 844 24.92 8.2 46.8 86 6 42.9
15:55 1015 29.97 844 24.92 8.1 46.7 87 6.1 43
16:00 1015 29.97 844 24.92 8.1 46.5 86 5.9 42.7
16:05 1015 29.97 845 24.95 8.1 46.6 85 5.8 42.4
16:10 1015 29.97 845 24.95 8 46.3 85 5.7 42.2
16:15 1015 29.97 844 24.92 7.8 46 87 5.8 42.4
16:20 1015 29.97 844 24.92 7.6 45.6 87 5.6 42.1
16:25 1015 29.97 844 24.92 7.6 45.6 86 5.5 41.8
16:30 1015 29.97 844 24.92 7.7 45.8 87 5.6 42.1
16:35 1015 29.97 845 24.95 7.8 46 86 5.6 42.1
16:40 1015 29.97 845 24.95 7.7 45.8 89 5.9 42.6
16:45 1015 29.97 844 24.92 7.4 45.3 91 6 42.8
16:50 1015 29.97 844 24.92 7 44.5 93 5.9 42.6
16:55 1015 29.97 844 24.92 6.7 44.1 93 5.7 42.3
17:00 1015 29.97 844 24.92 6.6 43.8 95 5.8 42.4
17:05 1015 29.97 844 24.92 6.6 43.8 94 5.7 42.2
17:10 1015 29.97 844 24.92 6.6 43.9 95 5.8 42.5
17:15 1015 29.97 845 24.95 6.6 43.9 94 5.8 42.4
17:20 1015 29.97 845 24.95 6.7 44 93 5.6 42.1
17:25 1015 29.97 845 24.95 6.7 44 93 5.6 42.1
17:30 1015 29.97 845 24.95 6.7 44 93 5.6 42.1
17:35 1016 30 845 24.95 6.7 44.1 93 5.6 42.1
17:40 1016 30 845 24.95 6.7 44.1 92 5.6 42.1
17:45 1016 30 845 24.95 6.8 44.3 92 5.6 42
17:50 1016 30 845 24.95 6.7 44.1 93 5.7 42.2
17:55 1015 29.97 845 24.95 6.6 43.8 95 5.7 42.3
18:00 1015 29.97 844 24.92 6.5 43.7 95 5.7 42.2
18:05 1015 29.97 844 24.92 6.5 43.7 94 5.5 42
18:10 1015 29.97 844 24.92 6.4 43.6 94 5.5 41.9
18:15 1015 29.97 844 24.92 6.4 43.6 94 5.5 41.8
18:20 1015 29.97 844 24.92 6.3 43.4 93 5.3 41.6
18:25 1015 29.97 844 24.92 6.4 43.5 93 5.4 41.6
18:30 1015 29.97 844 24.92 6.4 43.5 93 5.3 41.6
18:35 1015 29.97 844 24.92 6.4 43.5 92 5.2 41.3
18:40 1015 29.97 844 24.92 6.4 43.5 92 5.2 41.3
18:45 1016 30 845 24.95 6.4 43.6 90 4.9 40.8
18:50 1016 30 845 24.95 6.5 43.7 90 4.9 40.9
18:55 1016 30 845 24.95 6.4 43.6 89 4.8 40.6
19:00 1016 30 845 24.95 6.4 43.5 90 4.9 40.8
19:05 1016 30 845 24.95 6.3 43.3 90 4.7 40.5
19:10 1015 29.97 845 24.95 6.1 43 96 5.5 41.9
19:15 1016 30 845 24.95 5.8 42.4 97 5.4 41.6
19:20 1016 30 845 24.95 5.6 42.1 98 5.2 41.4
19:25 1016 30 845 24.95 5.6 42 98 5.3 41.5
19:30 1016 30 845 24.95 5.6 42 98 5.3 41.6
19:35 1016 30 845 24.95 5.7 42.2 98 5.4 41.6
19:40 1016 30 845 24.95 5.8 42.5 91 4.4 40
19:45 1016 30 845 24.95 6 42.8 90 4.4 40
19:50 1016 30 845 24.95 5.9 42.6 89 4.2 39.6
19:55 1016 30 845 24.95 5.9 42.5 88 4.1 39.4
20:00 1016 30 845 24.95 5.8 42.4 89 4.1 39.3
20:05 1016 30 845 24.95 5.6 42.1 90 4.2 39.5
20:10 1016 30 845 24.95 5.6 42.1 89 3.9 39.1
20:15 1016 30 845 24.95 5.6 42.1 88 3.8 38.8
20:20 1016 30 845 24.95 5.5 42 88 3.7 38.7
20:25 1016 30 845 24.95 5.5 41.9 89 3.8 38.9
20:30 1016 30 845 24.95 5.4 41.8 90 4 39.2
20:35 1016 30 845 24.95 5.4 41.7 89 3.7 38.7
20:40 1016 30 845 24.95 5.4 41.7 89 3.8 38.8
20:45 1016 30 846 24.98 5.4 41.7 89 3.7 38.6
20:50 1016 30 846 24.98 5.3 41.5 88 3.5 38.3
20:55 1016 30 845 24.95 5.2 41.3 87 3.2 37.8
21:00 1016 30 845 24.95 5.1 41.2 87 3.2 37.7
21:05 1016 30 846 24.98 5 40.9 87 2.9 37.3
21:10 1016 30 845 24.95 4.8 40.7 87 2.8 37
21:15 1017 30.03 846 24.98 4.7 40.4 88 2.9 37.1
21:20 1017 30.03 846 24.98 4.6 40.2 88 2.7 36.9
21:25 1017 30.03 846 24.98 4.4 39.9 88 2.6 36.7
21:30 1017 30.03 846 24.98 4.3 39.7 89 2.6 36.7
21:35 1017 30.03 846 24.98 4.2 39.6 89 2.5 36.5
21:40 1017 30.03 846 24.98 4 39.3 89 2.4 36.3
21:45 1017 30.03 846 24.98 4 39.2 89 2.3 36.1
21:50 1017 30.03 846 24.98 3.9 39 88 2.2 35.9
21:55 1017 30.03 846 24.98 3.7 38.6 89 2.1 35.8
22:00 1017 30.03 846 24.98 3.6 38.5 89 1.9 35.5
22:05 1017 30.03 846 24.98 3.6 38.4 89 2 35.6
22:10 1017 30.03 846 24.98 3.5 38.4 88 1.7 35.1
22:15 1017 30.03 847 25.01 3.5 38.2 88 1.6 34.9
22:20 1017 30.03 846 24.98 3.4 38.2 87 1.5 34.8
22:25 1017 30.03 846 24.98 3.4 38.1 88 1.5 34.8
22:30 1017 30.03 846 24.98 3.3 38 88 1.5 34.7
22:35 1017 30.03 846 24.98 3.3 37.9 88 1.4 34.6
22:40 1017 30.03 846 24.98 3.1 37.6 89 1.5 34.6
22:45 1017 30.03 846 24.98 3 37.5 90 1.5 34.7
22:50 1017 30.03 846 24.98 3 37.3 90 1.4 34.5
22:55 1017 30.03 846 24.98 2.9 37.3 89 1.3 34.3
23:00 1017 30.03 846 24.98 2.8 37 90 1.3 34.3
23:05 1017 30.03 846 24.98 2.7 36.8 90 1.2 34.2
23:10 1017 30.03 846 24.98 2.6 36.7 91 1.3 34.4
23:15 1017 30.03 846 24.98 2.5 36.6 91 1.3 34.3
23:20 1017 30.03 846 24.98 2.4 36.3 91 1.2 34.1
23:25 1017 30.03 846 24.98 2.5 36.4 92 1.2 34.2
23:30 1017 30.03 846 24.98 2.5 36.5 91 1.1 34
23:35 1017 30.03 846 24.98 2.5 36.6 90 1.1 33.9
23:40 1017 30.03 846 24.98 2.5 36.4 90 1.1 33.9
23:45 1017 30.03 846 24.98 2.4 36.4 91 1 33.9
23:50 1017 30.03 847 25.01 2.4 36.3 90 0.9 33.7
23:55 1017 30.03 846 24.98 2.5 36.5 91 1.1 34
24:00 1017 30.03 846 24.98 2.5 36.5 91 1.1 34